Time;durP1;ratioP1;P1;durP2;ratioP2;P2;SDS_P1;SDS_P2;PMS_P1;PMS_P2;Temp;Humidity;BMP_temperature;BMP_pressure;BME280_temperature;BME280_humidity;BME280_pressure;Samples;Min_cycle;Max_cycle;Signal;HPM_P1;HPM_P2
2023/10/03 00:02:05;;;;;;;33.80;14.37;;;21.00;1.00;;;;;;4980830;28;20236;-60
2023/10/03 00:04:34;;;;;;;35.23;13.50;;;21.00;1.00;;;;;;4995402;28;21862;-59
2023/10/03 00:07:02;;;;;;;37.13;14.40;;;21.00;1.00;;;;;;4981463;28;20242;-60
2023/10/03 00:09:32;;;;;;;34.40;14.47;;;21.10;1.00;;;;;;4981214;28;20265;-59
2023/10/03 00:12:01;;;;;;;36.00;14.30;;;21.00;1.00;;;;;;4982160;28;20619;-60
2023/10/03 00:14:31;;;;;;;41.03;15.10;;;21.00;1.00;;;;;;4977826;28;20223;-60
2023/10/03 00:16:59;;;;;;;39.53;14.20;;;21.00;1.00;;;;;;4982775;28;20273;-60
2023/10/03 00:19:28;;;;;;;36.50;13.77;;;21.00;1.00;;;;;;4983056;28;20198;-60
2023/10/03 00:21:56;;;;;;;38.57;13.73;;;20.90;1.00;;;;;;4979116;28;20199;-60
2023/10/03 00:24:25;;;;;;;33.40;12.77;;;20.90;1.00;;;;;;4981516;28;20227;-60
2023/10/03 00:26:54;;;;;;;37.97;13.10;;;20.90;1.00;;;;;;4979790;28;20227;-60
2023/10/03 00:29:29;;;;;;;31.37;12.83;;;21.00;1.00;;;;;;4983254;28;20290;-59
2023/10/03 00:32:00;;;;;;;31.93;13.37;;;21.00;1.00;;;;;;4979993;28;20269;-60
2023/10/03 00:34:29;;;;;;;34.93;12.90;;;20.90;1.00;;;;;;4980884;28;20691;-60
2023/10/03 00:36:58;;;;;;;37.70;12.90;;;20.90;1.00;;;;;;4982095;28;20196;-60
2023/10/03 00:39:27;;;;;;;33.70;12.97;;;20.80;1.00;;;;;;4983193;28;20223;-60
2023/10/03 00:41:56;;;;;;;33.40;12.53;;;20.90;1.00;;;;;;4993413;28;20238;-60
2023/10/03 00:44:25;;;;;;;36.07;13.10;;;20.90;1.00;;;;;;4980946;28;20223;-60
2023/10/03 00:46:54;;;;;;;34.37;12.17;;;20.90;1.00;;;;;;4982772;28;20246;-59
2023/10/03 00:49:24;;;;;;;28.13;11.83;;;20.90;1.00;;;;;;4980123;28;20206;-59
2023/10/03 00:51:52;;;;;;;30.30;12.50;;;20.90;1.00;;;;;;4981866;28;20207;-60
2023/10/03 00:54:21;;;;;;;31.13;11.80;;;20.80;1.00;;;;;;4969711;28;20337;-61
2023/10/03 00:56:50;;;;;;;31.57;12.03;;;20.80;1.00;;;;;;4980303;28;20696;-61
2023/10/03 00:59:18;;;;;;;30.47;11.70;;;20.80;1.00;;;;;;4981954;28;20218;-61
2023/10/03 01:01:49;;;;;;;31.50;12.60;;;20.80;1.00;;;;;;4978762;28;20250;-60
2023/10/03 01:04:19;;;;;;;27.33;11.30;;;20.70;1.00;;;;;;4982239;28;20278;-60
2023/10/03 01:06:50;;;;;;;29.60;11.97;;;20.70;1.00;;;;;;4986482;28;20680;-61
2023/10/03 01:09:25;;;;;;;28.77;11.77;;;20.70;1.00;;;;;;4982455;28;20227;-61
2023/10/03 01:11:53;;;;;;;28.70;10.93;;;20.60;1.00;;;;;;4980449;28;20223;-60
2023/10/03 01:14:22;;;;;;;32.13;11.53;;;20.70;1.00;;;;;;4982999;28;20711;-60
2023/10/03 01:16:52;;;;;;;27.27;10.83;;;20.70;1.00;;;;;;4982722;28;20712;-60
2023/10/03 01:19:24;;;;;;;26.60;10.63;;;20.70;1.00;;;;;;4984466;28;20199;-59
2023/10/03 01:21:56;;;;;;;23.73;10.60;;;20.80;1.00;;;;;;4965789;28;20325;-60
2023/10/03 01:24:26;;;;;;;27.23;10.70;;;20.80;1.00;;;;;;4986468;28;21007;-60
2023/10/03 01:26:55;;;;;;;29.90;10.80;;;20.90;1.00;;;;;;4982915;28;20594;-61
2023/10/03 01:29:24;;;;;;;21.97;10.40;;;20.90;1.00;;;;;;4984818;28;20223;-60
2023/10/03 01:31:53;;;;;;;24.13;10.33;;;20.90;1.00;;;;;;4984813;28;20743;-61
2023/10/03 01:34:22;;;;;;;24.93;10.93;;;20.90;1.00;;;;;;4984584;28;20238;-60
2023/10/03 01:36:53;;;;;;;24.13;10.00;;;20.90;1.00;;;;;;4986692;28;20219;-60
2023/10/03 01:39:23;;;;;;;29.33;10.03;;;20.90;1.00;;;;;;4982094;28;20219;-60
2023/10/03 01:41:53;;;;;;;22.30;9.77;;;20.90;1.00;;;;;;4987388;28;20681;-60
2023/10/03 01:44:21;;;;;;;22.10;10.00;;;20.80;1.00;;;;;;4983144;28;20215;-60
2023/10/03 01:46:50;;;;;;;20.80;9.40;;;21.00;1.00;;;;;;4985495;28;20242;-60
2023/10/03 01:49:19;;;;;;;23.23;9.20;;;21.00;1.00;;;;;;4985162;28;20195;-60
2023/10/03 01:51:47;;;;;;;18.77;9.10;;;21.10;1.00;;;;;;4982185;28;20220;-60
2023/10/03 01:54:16;;;;;;;25.10;9.27;;;21.10;1.00;;;;;;4986097;28;20581;-60
2023/10/03 01:56:44;;;;;;;18.07;8.03;;;21.20;1.00;;;;;;4981366;28;20227;-60
2023/10/03 01:59:16;;;;;;;20.30;9.30;;;21.20;1.00;;;;;;4980363;28;20219;-60
2023/10/03 02:01:44;;;;;;;19.93;8.40;;;21.20;1.00;;;;;;4985603;28;20818;-60
2023/10/03 02:04:13;;;;;;;16.87;8.10;;;21.20;1.00;;;;;;4985091;28;20608;-61
2023/10/03 02:06:44;;;;;;;16.10;8.00;;;21.10;1.00;;;;;;4979836;28;20736;-60
2023/10/03 02:09:13;;;;;;;16.17;8.17;;;21.10;1.00;;;;;;4984968;28;20240;-60
2023/10/03 02:11:41;;;;;;;19.77;8.13;;;21.10;1.00;;;;;;4984459;28;20847;-60
2023/10/03 02:14:11;;;;;;;13.53;7.17;;;21.10;1.00;;;;;;4969438;28;20269;-60
2023/10/03 02:16:44;;;;;;;14.63;7.20;;;21.10;1.00;;;;;;4984962;28;20612;-61
2023/10/03 02:19:13;;;;;;;15.80;7.63;;;21.00;1.00;;;;;;4981355;28;20186;-60
2023/10/03 02:21:42;;;;;;;18.07;6.83;;;20.90;1.00;;;;;;4985795;28;20211;-60
2023/10/03 02:24:12;;;;;;;14.27;7.27;;;20.90;1.00;;;;;;4982337;28;20424;-61
2023/10/03 02:26:45;;;;;;;15.03;7.03;;;20.80;1.00;;;;;;4979826;28;20985;-60
2023/10/03 02:29:13;;;;;;;13.47;7.73;;;20.80;1.00;;;;;;4982076;28;20223;-60
2023/10/03 02:31:46;;;;;;;16.40;7.87;;;20.80;6.90;;;;;;4981796;28;20240;-60
2023/10/03 02:34:16;;;;;;;13.87;7.30;;;20.80;12.80;;;;;;4983273;28;20213;-59
2023/10/03 02:36:46;;;;;;;13.03;7.37;;;20.70;18.30;;;;;;4985748;28;20270;-61
2023/10/03 02:39:18;;;;;;;13.93;6.03;;;20.70;22.90;;;;;;4984927;28;20758;-60
2023/10/03 02:41:48;;;;;;;11.73;6.27;;;20.60;26.10;;;;;;4979124;28;20226;-60
2023/10/03 02:44:16;;;;;;;13.50;6.70;;;20.60;27.00;;;;;;4983769;28;20647;-60
2023/10/03 02:46:46;;;;;;;27.87;6.70;;;20.60;25.70;;;;;;4984862;28;20265;-60
2023/10/03 02:49:14;;;;;;;15.77;6.00;;;20.60;25.10;;;;;;4985896;28;20207;-59
2023/10/03 02:51:43;;;;;;;9.00;5.60;;;20.50;19.10;;;;;;4985914;28;20217;-60
2023/10/03 02:54:11;;;;;;;8.97;5.57;;;20.40;11.20;;;;;;4985531;28;20221;-60
2023/10/03 02:56:39;;;;;;;8.43;5.53;;;20.30;14.60;;;;;;4984297;28;20222;-60
2023/10/03 02:59:08;;;;;;;11.77;5.50;;;20.30;8.60;;;;;;4983099;28;20322;-60
2023/10/03 03:01:38;;;;;;;10.87;5.43;;;20.30;5.70;;;;;;4982240;28;20230;-60
2023/10/03 03:04:11;;;;;;;8.53;4.73;;;20.20;1.00;;;;;;4966505;28;20207;-60
2023/10/03 03:06:40;;;;;;;11.87;5.27;;;20.10;1.00;;;;;;4980577;28;20234;-60
2023/10/03 03:09:13;;;;;;;11.77;5.27;;;20.00;1.00;;;;;;4981234;28;20230;-60
2023/10/03 03:11:47;;;;;;;17.10;5.27;;;20.00;1.00;;;;;;4981584;28;20223;-60
2023/10/03 03:14:16;;;;;;;11.93;5.23;;;20.00;1.00;;;;;;4981410;28;20233;-60
2023/10/03 03:16:48;;;;;;;9.10;4.80;;;19.90;1.00;;;;;;4986379;28;20231;-60
2023/10/03 03:19:18;;;;;;;16.20;5.17;;;19.80;1.00;;;;;;4984208;28;20186;-60
2023/10/03 03:21:47;;;;;;;15.50;5.63;;;19.70;1.00;;;;;;4981705;28;20293;-60
2023/10/03 03:24:21;;;;;;;8.53;5.30;;;19.60;1.00;;;;;;4982047;28;20230;-60
2023/10/03 03:26:57;;;;;;;9.83;5.00;;;19.50;1.00;;;;;;4986447;28;20680;-60
2023/10/03 03:29:35;;;;;;;13.07;5.30;;;19.40;5.20;;;;;;4980518;28;20227;-60
2023/10/03 03:32:04;;;;;;;13.80;5.67;;;19.30;10.80;;;;;;4980638;28;20644;-60
2023/10/03 03:34:35;;;;;;;11.20;5.50;;;19.30;17.20;;;;;;4983945;28;20741;-60
2023/10/03 03:37:21;;;;;;;13.40;5.50;;;19.30;21.40;;;;;;4981293;28;20810;-60
2023/10/03 03:39:54;;;;;;;8.17;5.50;;;19.20;18.60;;;;;;4975187;28;20218;-60
2023/10/03 03:42:28;;;;;;;10.50;6.07;;;19.20;23.80;;;;;;4982968;28;20341;-60
2023/10/03 03:44:57;;;;;;;9.47;5.23;;;19.20;20.70;;;;;;4983401;28;20226;-60
2023/10/03 03:47:25;;;;;;;9.80;5.27;;;19.20;24.10;;;;;;4981685;28;20941;-60
2023/10/03 03:49:56;;;;;;;11.40;5.63;;;19.20;24.90;;;;;;4983088;28;20727;-60
2023/10/03 03:52:25;;;;;;;10.50;5.43;;;19.20;24.30;;;;;;4980223;28;20210;-60
2023/10/03 03:54:54;;;;;;;11.93;5.37;;;19.20;28.70;;;;;;4979793;28;20285;-60
2023/10/03 03:57:22;;;;;;;11.27;5.33;;;19.20;30.50;;;;;;4981938;28;20693;-60
2023/10/03 03:59:50;;;;;;;12.43;5.97;;;19.20;36.50;;;;;;4980522;28;20820;-60
2023/10/03 04:02:19;;;;;;;20.57;6.47;;;19.10;37.80;;;;;;4998405;28;20226;-60
2023/10/03 04:04:47;;;;;;;13.63;5.90;;;19.20;37.50;;;;;;4980481;28;20230;-60
2023/10/03 04:07:17;;;;;;;12.00;5.87;;;19.10;43.50;;;;;;4983125;28;20305;-59
2023/10/03 04:09:46;;;;;;;9.90;5.40;;;19.10;44.70;;;;;;4982218;28;20234;-60
2023/10/03 04:12:15;;;;;;;9.77;5.63;;;19.10;46.70;;;;;;4962155;28;20226;-60
2023/10/03 04:14:44;;;;;;;15.03;5.80;;;19.10;47.70;;;;;;4979453;28;20233;-60
2023/10/03 04:17:15;;;;;;;11.37;5.53;;;19.10;47.90;;;;;;4981540;28;20257;-60
2023/10/03 04:19:43;;;;;;;12.27;5.20;;;19.10;48.80;;;;;;4980789;28;20317;-60
2023/10/03 04:22:11;;;;;;;13.77;5.77;;;19.10;53.60;;;;;;4980858;28;20253;-60
2023/10/03 04:24:41;;;;;;;13.87;5.90;;;19.10;54.70;;;;;;4981639;28;20234;-60
2023/10/03 04:27:10;;;;;;;15.00;6.73;;;19.00;60.80;;;;;;4984487;28;20219;-60
2023/10/03 04:29:39;;;;;;;11.40;6.40;;;19.10;59.30;;;;;;4981512;28;20792;-60
2023/10/03 04:32:07;;;;;;;13.63;6.20;;;19.00;64.40;;;;;;4982877;28;20723;-60
2023/10/03 04:34:36;;;;;;;10.13;6.07;;;19.00;65.40;;;;;;4980476;28;20601;-60
2023/10/03 04:37:05;;;;;;;21.87;7.10;;;19.00;74.10;;;;;;4981257;28;20214;-60
2023/10/03 04:39:35;;;;;;;13.10;6.10;;;18.90;83.30;;;;;;4978654;28;20681;-60
2023/10/03 04:42:06;;;;;;;15.03;6.90;;;18.80;90.30;;;;;;4993224;28;20250;-60
2023/10/03 04:44:36;;;;;;;16.00;6.20;;;18.80;91.60;;;;;;4978777;28;20260;-60
2023/10/03 04:47:04;;;;;;;12.97;6.60;;;18.80;92.70;;;;;;4979946;28;20227;-60
2023/10/03 04:49:32;;;;;;;11.57;6.03;;;18.80;94.10;;;;;;4977420;28;20219;-60
2023/10/03 04:52:01;;;;;;;11.27;5.93;;;18.80;96.00;;;;;;4981036;28;20218;-60
2023/10/03 04:54:29;;;;;;;10.57;6.20;;;18.80;94.70;;;;;;4980732;28;20218;-60
2023/10/03 04:56:58;;;;;;;13.10;6.53;;;18.80;93.80;;;;;;4981121;28;20333;-60
2023/10/03 04:59:28;;;;;;;13.07;6.77;;;18.80;93.30;;;;;;4981742;28;20225;-60
2023/10/03 05:01:56;;;;;;;13.87;7.10;;;18.80;95.50;;;;;;4980510;28;20230;-61
2023/10/03 05:04:24;;;;;;;12.80;6.60;;;18.90;94.90;;;;;;4980642;28;20206;-59
2023/10/03 05:06:53;;;;;;;12.23;6.93;;;18.80;95.70;;;;;;4982325;28;20310;-61
2023/10/03 05:09:22;;;;;;;15.43;7.20;;;18.80;96.60;;;;;;4980497;28;20244;-60
2023/10/03 05:11:50;;;;;;;13.27;6.47;;;18.80;96.10;;;;;;4982162;28;20229;-60
2023/10/03 05:14:20;;;;;;;12.00;7.10;;;18.80;99.70;;;;;;4980339;28;20223;-60
2023/10/03 05:16:50;;;;;;;18.53;7.17;;;18.80;98.70;;;;;;4981569;28;20605;-60
2023/10/03 05:19:20;;;;;;;10.90;6.10;;;18.80;99.80;;;;;;4979335;28;20195;-59
2023/10/03 05:21:49;;;;;;;13.77;7.07;;;18.80;99.90;;;;;;4978344;28;20203;-58
2023/10/03 05:24:19;;;;;;;17.60;7.10;;;18.80;98.50;;;;;;4967626;28;20293;-60
2023/10/03 05:26:48;;;;;;;14.03;6.90;;;18.80;98.70;;;;;;4980274;28;20237;-60
2023/10/03 05:29:17;;;;;;;13.90;7.13;;;18.80;99.90;;;;;;4981936;28;20229;-60
2023/10/03 05:31:45;;;;;;;12.63;6.13;;;18.80;99.90;;;;;;4980156;28;20342;-60
2023/10/03 05:34:17;;;;;;;12.57;6.40;;;18.80;99.90;;;;;;4980079;28;20678;-58
2023/10/03 05:36:45;;;;;;;9.60;6.83;;;18.80;99.30;;;;;;4980401;28;20218;-60
2023/10/03 05:39:15;;;;;;;13.63;6.73;;;18.80;99.90;;;;;;4973942;28;20235;-60
2023/10/03 05:41:47;;;;;;;9.57;6.83;;;18.80;99.90;;;;;;4980438;28;20988;-60
2023/10/03 05:44:18;;;;;;;12.73;6.70;;;18.70;99.90;;;;;;4979741;28;20233;-59
2023/10/03 05:46:52;;;;;;;9.43;6.80;;;18.80;99.90;;;;;;4977429;28;20223;-58
2023/10/03 05:49:24;;;;;;;15.40;7.33;;;18.70;99.90;;;;;;4980135;28;20818;-58
2023/10/03 05:51:55;;;;;;;10.90;6.03;;;18.70;99.90;;;;;;4982803;28;20630;-58
2023/10/03 05:54:25;;;;;;;15.10;7.13;;;18.70;99.90;;;;;;4979330;28;20608;-59
2023/10/03 05:56:56;;;;;;;11.07;6.50;;;18.70;99.90;;;;;;4981671;28;20680;-59
2023/10/03 05:59:26;;;;;;;12.10;6.97;;;18.70;99.90;;;;;;4978799;28;20250;-59
2023/10/03 06:01:57;;;;;;;14.40;6.77;;;18.70;99.90;;;;;;4979769;28;20337;-59
2023/10/03 06:04:27;;;;;;;14.83;6.90;;;18.70;99.90;;;;;;4977749;28;20219;-59
2023/10/03 06:06:56;;;;;;;12.40;7.20;;;18.70;99.90;;;;;;4980137;28;20214;-59
2023/10/03 06:09:26;;;;;;;10.83;6.27;;;18.80;99.90;;;;;;5000273;28;20237;-59
2023/10/03 06:11:55;;;;;;;12.43;7.07;;;18.80;99.90;;;;;;5014353;28;20222;-59
2023/10/03 06:14:25;;;;;;;13.03;7.10;;;18.70;99.90;;;;;;5002977;28;20246;-59
2023/10/03 06:16:53;;;;;;;12.07;6.60;;;18.80;99.90;;;;;;5001337;28;20256;-59
2023/10/03 06:19:22;;;;;;;11.87;6.30;;;18.80;99.90;;;;;;4998072;28;20187;-59
2023/10/03 06:21:52;;;;;;;16.93;6.63;;;18.80;99.90;;;;;;4997984;28;20836;-59
2023/10/03 06:24:20;;;;;;;13.17;6.10;;;18.80;99.90;;;;;;5001702;28;20233;-59
2023/10/03 06:26:50;;;;;;;12.67;6.77;;;18.80;99.90;;;;;;5002198;28;20247;-59
2023/10/03 06:29:20;;;;;;;14.67;7.20;;;18.90;99.90;;;;;;5000725;28;20313;-60
2023/10/03 06:31:48;;;;;;;12.30;6.50;;;18.90;99.90;;;;;;5001099;28;20230;-59
2023/10/03 06:34:18;;;;;;;12.40;6.80;;;18.90;99.90;;;;;;5007140;28;20218;-59
2023/10/03 06:36:47;;;;;;;10.43;6.23;;;18.90;99.90;;;;;;4998742;28;20216;-59
2023/10/03 06:39:17;;;;;;;14.73;6.47;;;18.90;99.90;;;;;;5000324;28;20296;-59
2023/10/03 06:41:45;;;;;;;8.93;6.53;;;18.90;99.90;;;;;;4993493;28;20236;-59
2023/10/03 06:44:14;;;;;;;11.27;6.47;;;19.00;99.90;;;;;;5005089;28;20649;-59
2023/10/03 06:46:43;;;;;;;11.57;6.43;;;19.00;99.90;;;;;;5003600;28;20253;-59
2023/10/03 06:49:11;;;;;;;10.37;6.33;;;19.00;99.90;;;;;;4999571;28;20225;-59
2023/10/03 06:51:42;;;;;;;10.27;6.07;;;18.90;99.90;;;;;;5001407;28;20393;-59
2023/10/03 06:54:10;;;;;;;12.43;6.47;;;19.00;99.90;;;;;;5006176;28;20232;-59
2023/10/03 06:56:41;;;;;;;14.57;6.57;;;19.00;99.90;;;;;;5001167;28;20226;-59
2023/10/03 06:59:10;;;;;;;10.63;6.03;;;19.00;99.90;;;;;;5004167;28;20213;-58
2023/10/03 07:01:39;;;;;;;10.03;6.30;;;19.00;99.90;;;;;;5003542;28;20225;-58
2023/10/03 07:04:08;;;;;;;11.00;7.00;;;19.00;99.90;;;;;;5006980;28;20278;-59
2023/10/03 07:06:37;;;;;;;13.27;6.83;;;18.90;99.90;;;;;;5005183;28;20226;-60
2023/10/03 07:09:07;;;;;;;15.27;7.00;;;18.80;99.90;;;;;;4988809;28;20232;-59
2023/10/03 07:11:36;;;;;;;13.23;7.43;;;18.80;99.90;;;;;;4984397;28;20600;-59
2023/10/03 07:14:05;;;;;;;17.13;7.03;;;18.70;99.90;;;;;;4981904;28;20258;-59
2023/10/03 07:16:41;;;;;;;10.87;6.67;;;18.70;99.90;;;;;;4970360;28;20235;-59
2023/10/03 07:19:10;;;;;;;13.97;6.50;;;18.70;99.90;;;;;;4982980;28;20190;-59
2023/10/03 07:21:39;;;;;;;15.10;7.10;;;18.70;99.90;;;;;;4986769;28;20242;-59
2023/10/03 07:24:07;;;;;;;10.73;7.13;;;18.80;99.90;;;;;;4984663;28;20222;-60
2023/10/03 07:26:36;;;;;;;11.83;6.23;;;18.80;99.90;;;;;;4982920;28;20223;-59
2023/10/03 07:29:06;;;;;;;11.47;6.60;;;18.80;99.90;;;;;;4978402;28;20672;-59
2023/10/03 07:31:36;;;;;;;9.83;6.60;;;18.80;99.90;;;;;;4983873;28;20317;-59
2023/10/03 07:34:06;;;;;;;10.63;6.00;;;18.80;99.90;;;;;;4964087;28;21133;-59
2023/10/03 07:36:35;;;;;;;8.90;6.47;;;18.80;99.90;;;;;;4984744;28;20589;-59
2023/10/03 07:39:04;;;;;;;6.17;5.57;;;18.80;99.90;;;;;;4985155;28;20771;-59
2023/10/03 07:41:33;;;;;;;11.20;5.33;;;18.70;99.90;;;;;;4981947;28;20685;-59
2023/10/03 07:44:04;;;;;;;8.97;4.50;;;18.70;99.90;;;;;;4983746;28;20242;-59
2023/10/03 07:46:34;;;;;;;9.77;4.40;;;18.40;99.90;;;;;;4980631;28;20261;-59
2023/10/03 07:49:02;;;;;;;6.47;3.60;;;18.00;99.90;;;;;;4982078;28;20237;-59
2023/10/03 07:51:31;;;;;;;8.07;3.93;;;17.80;99.90;;;;;;4980635;28;20285;-59
2023/10/03 07:54:02;;;;;;;5.47;3.20;;;17.60;99.90;;;;;;4979717;28;20238;-59
2023/10/03 07:56:31;;;;;;;7.23;3.47;;;17.50;99.90;;;;;;4980563;28;20568;-59
2023/10/03 07:59:02;;;;;;;6.70;3.33;;;17.50;99.90;;;;;;4983101;28;20573;-59
2023/10/03 08:01:38;;;;;;;3.70;2.60;;;17.40;99.90;;;;;;4978468;28;20191;-58
2023/10/03 08:04:31;;;;;;;6.20;2.87;;;17.30;99.90;;;;;;4981136;28;20246;-59
2023/10/03 08:07:00;;;;;;;6.90;2.50;;;17.30;99.90;;;;;;4981571;28;20233;-59
2023/10/03 08:09:31;;;;;;;4.87;2.63;;;17.30;99.90;;;;;;4995685;28;20565;-59
2023/10/03 08:12:11;;;;;;;7.43;2.57;;;17.30;99.90;;;;;;5005869;28;20355;-59
2023/10/03 08:14:41;;;;;;;5.23;2.70;;;17.20;99.90;;;;;;5002160;28;20230;-59
2023/10/03 08:17:12;;;;;;;4.57;2.40;;;17.20;99.90;;;;;;5004116;28;20626;-59
2023/10/03 08:19:45;;;;;;;4.70;2.30;;;17.10;99.90;;;;;;5001463;28;20237;-59
2023/10/03 08:22:14;;;;;;;6.20;2.07;;;17.10;99.90;;;;;;4999082;28;20198;-52
2023/10/03 08:24:44;;;;;;;5.00;2.00;;;17.10;99.90;;;;;;5005148;28;20183;-59
2023/10/03 08:27:18;;;;;;;5.87;2.30;;;17.20;99.90;;;;;;4995306;28;20225;-59
2023/10/03 08:29:50;;;;;;;2.77;2.00;;;17.20;99.90;;;;;;4999853;28;20229;-59
2023/10/03 08:32:22;;;;;;;5.80;2.50;;;17.20;99.90;;;;;;5000763;28;20592;-59
2023/10/03 08:34:51;;;;;;;6.83;2.20;;;17.20;99.90;;;;;;5000303;28;20244;-59
2023/10/03 08:37:22;;;;;;;5.00;1.87;;;17.20;99.90;;;;;;5001475;28;20212;-58
2023/10/03 08:39:51;;;;;;;2.90;1.90;;;17.20;99.90;;;;;;5014176;28;20206;-59
2023/10/03 08:42:34;;;;;;;2.50;1.97;;;17.20;99.90;;;;;;5000934;28;20230;-59
2023/10/03 08:45:16;;;;;;;5.07;2.10;;;17.20;99.90;;;;;;4999663;28;20213;-59
2023/10/03 08:47:52;;;;;;;3.93;1.93;;;17.30;99.90;;;;;;4997256;28;20230;-59
2023/10/03 08:50:34;;;;;;;2.30;1.60;;;17.30;99.90;;;;;;4999821;28;20225;-59
2023/10/03 08:53:15;;;;;;;3.63;1.90;;;17.30;99.90;;;;;;5004705;28;20289;-59
2023/10/03 08:55:46;;;;;;;6.83;2.20;;;17.30;99.30;;;;;;5000576;28;20324;-59
2023/10/03 08:58:18;;;;;;;5.40;1.83;;;17.40;97.70;;;;;;4998811;28;20248;-58
2023/10/03 09:00:49;;;;;;;3.57;1.90;;;17.30;99.00;;;;;;5019194;28;20195;-59
2023/10/03 09:03:20;;;;;;;2.97;1.80;;;17.30;95.10;;;;;;5004056;28;20583;-59
2023/10/03 09:05:48;;;;;;;5.77;1.57;;;17.30;99.90;;;;;;4996113;28;20225;-59
2023/10/03 09:08:17;;;;;;;2.93;1.60;;;17.40;96.10;;;;;;4992313;28;20705;-59
2023/10/03 09:10:52;;;;;;;4.33;1.50;;;17.30;91.40;;;;;;4985802;28;20236;-59
2023/10/03 09:13:27;;;;;;;1.40;1.30;;;17.20;94.40;;;;;;4983957;28;20199;-58
2023/10/03 09:16:00;;;;;;;2.23;0.90;;;17.00;96.20;;;;;;4976758;28;20213;-59
2023/10/03 09:18:40;;;;;;;1.13;1.00;;;16.90;98.40;;;;;;4980877;28;20284;-59
2023/10/03 09:21:14;;;;;;;1.43;1.30;;;16.80;99.90;;;;;;4980325;28;20313;-59
2023/10/03 09:24:01;;;;;;;2.40;1.10;;;16.60;99.90;;;;;;4981920;28;20236;-60
2023/10/03 09:26:45;;;;;;;1.53;1.00;;;16.50;99.90;;;;;;4979294;28;20233;-60
2023/10/03 09:29:29;;;;;;;1.30;1.03;;;16.50;99.90;;;;;;4978047;28;20235;-60
2023/10/03 09:32:07;;;;;;;1.10;1.10;;;16.50;99.90;;;;;;4977877;28;21058;-60
2023/10/03 09:34:40;;;;;;;1.70;1.00;;;16.50;99.90;;;;;;4979828;28;20238;-59
2023/10/03 09:37:10;;;;;;;1.47;1.10;;;16.50;99.90;;;;;;4975596;28;20195;-60
2023/10/03 09:39:49;;;;;;;2.37;1.13;;;16.50;99.90;;;;;;4977730;28;20229;-60
2023/10/03 09:42:23;;;;;;;1.53;1.00;;;16.60;99.90;;;;;;4984161;28;20225;-60
2023/10/03 09:44:57;;;;;;;1.00;1.00;;;16.70;87.70;;;;;;4979583;28;20296;-60
2023/10/03 09:47:30;;;;;;;2.23;1.00;;;16.80;71.90;;;;;;4978359;28;20324;-60
2023/10/03 09:50:09;;;;;;;2.50;1.00;;;16.90;66.70;;;;;;4982138;28;20230;-60
2023/10/03 09:52:38;;;;;;;1.50;1.00;;;17.00;42.80;;;;;;4982899;28;20770;-60
2023/10/03 09:55:21;;;;;;;1.93;1.33;;;17.00;28.50;;;;;;4986219;28;20214;-60
2023/10/03 09:57:54;;;;;;;3.33;1.40;;;17.10;20.10;;;;;;4983883;28;20231;-60
2023/10/03 10:00:40;;;;;;;2.10;1.30;;;17.00;11.50;;;;;;4986445;28;20225;-60
2023/10/03 10:03:12;;;;;;;3.37;1.20;;;17.00;15.90;;;;;;4982486;28;20299;-60
2023/10/03 10:05:49;;;;;;;4.47;1.40;;;17.10;24.20;;;;;;4982886;28;20281;-60
2023/10/03 10:08:29;;;;;;;2.23;1.20;;;17.30;19.70;;;;;;4984844;28;20368;-59
2023/10/03 10:11:07;;;;;;;3.00;1.37;;;17.50;6.70;;;;;;4981513;28;20290;-59
2023/10/03 10:13:37;;;;;;;2.37;1.67;;;17.60;1.00;;;;;;4981045;28;20311;-59
2023/10/03 10:16:11;;;;;;;3.50;1.10;;;17.60;1.00;;;;;;4982159;28;20220;-59
2023/10/03 10:19:00;;;;;;;3.07;1.10;;;17.60;1.00;;;;;;4980791;28;20226;-59
2023/10/03 10:21:36;;;;;;;4.93;1.50;;;17.60;1.00;;;;;;4983023;28;20321;-59
2023/10/03 10:24:27;;;;;;;3.93;1.50;;;17.60;1.00;;;;;;4985359;28;20269;-59
2023/10/03 10:26:59;;;;;;;1.50;1.20;;;17.50;1.00;;;;;;4979841;28;20218;-59
2023/10/03 10:29:34;;;;;;;3.63;1.30;;;17.50;1.00;;;;;;4982838;28;20215;-59
2023/10/03 10:32:18;;;;;;;1.47;1.37;;;17.50;1.00;;;;;;4984854;28;20240;-59
2023/10/03 10:34:50;;;;;;;5.73;1.40;;;17.50;1.00;;;;;;4979627;28;20696;-59
2023/10/03 10:37:22;;;;;;;3.23;1.30;;;17.70;1.00;;;;;;4978099;28;20584;-59
2023/10/03 10:40:21;;;;;;;3.57;1.23;;;18.00;1.00;;;;;;4981870;28;20281;-59
2023/10/03 10:43:06;;;;;;;2.13;1.40;;;18.10;1.00;;;;;;4979854;28;20939;-59
2023/10/03 10:45:44;;;;;;;2.83;1.43;;;18.10;1.00;;;;;;4984305;28;20229;-59
2023/10/03 10:48:12;;;;;;;1.27;1.20;;;18.10;1.00;;;;;;4979102;28;20214;-59
2023/10/03 10:51:12;;;;;;;2.27;1.40;;;18.40;1.00;;;;;;4979026;28;20231;-59
2023/10/03 10:53:44;;;;;;;3.10;1.70;;;18.80;1.00;;;;;;4976066;28;20277;-59
2023/10/03 10:56:14;;;;;;;2.03;1.30;;;19.20;1.00;;;;;;4979473;28;20623;-59
2023/10/03 10:58:51;;;;;;;1.70;1.60;;;19.10;1.00;;;;;;4981422;28;20810;-58
2023/10/03 11:01:19;;;;;;;1.63;1.33;;;18.90;1.00;;;;;;4997522;28;20202;-58
2023/10/03 11:03:49;;;;;;;3.20;1.67;;;18.60;1.00;;;;;;4981334;28;20206;-59
2023/10/03 11:06:18;;;;;;;2.53;1.60;;;18.40;1.00;;;;;;4998155;28;20219;-59
2023/10/03 11:08:50;;;;;;;1.23;1.23;;;18.20;1.00;;;;;;4981844;28;20227;-59
2023/10/03 11:11:19;;;;;;;1.93;1.83;;;18.20;1.00;;;;;;4984403;28;20226;-59
2023/10/03 11:13:49;;;;;;;2.37;1.90;;;18.20;1.00;;;;;;4983957;28;20239;-59
2023/10/03 11:16:25;;;;;;;4.40;2.00;;;18.40;1.00;;;;;;4986246;28;20234;-59
2023/10/03 11:18:56;;;;;;;2.87;1.70;;;18.60;1.00;;;;;;4981887;28;20258;-59
2023/10/03 11:21:25;;;;;;;2.20;2.00;;;18.80;1.00;;;;;;4986415;28;21053;-59
2023/10/03 11:24:15;;;;;;;2.50;1.90;;;18.90;1.00;;;;;;4970867;28;20754;-58
2023/10/03 11:26:46;;;;;;;2.90;1.70;;;19.10;1.00;;;;;;4981052;28;20232;-59
2023/10/03 11:29:16;;;;;;;2.17;1.97;;;19.30;99.90;;;;;;4983810;28;20227;-60
2023/10/03 11:31:45;;;;;;;3.47;2.10;;;19.50;1.00;;;;;;4984815;28;20240;-58
2023/10/03 11:34:31;;;;;;;3.33;2.00;;;19.60;1.00;;;;;;4984886;28;20191;-54
2023/10/03 11:37:02;;;;;;;2.70;2.07;;;19.60;1.00;;;;;;4981724;28;20212;-58
2023/10/03 11:39:39;;;;;;;3.30;2.07;;;19.60;1.00;;;;;;4982595;28;20230;-58
2023/10/03 11:42:09;;;;;;;2.63;1.90;;;19.40;99.90;;;;;;4981863;28;20234;-59
2023/10/03 11:44:38;;;;;;;3.67;2.00;;;19.10;1.00;;;;;;4995638;28;20219;-59
2023/10/03 11:47:07;;;;;;;2.00;1.90;;;18.80;1.00;;;;;;4982405;28;20582;-58
2023/10/03 11:49:35;;;;;;;4.13;2.03;;;18.70;1.00;;;;;;4982366;28;20562;-58
2023/10/03 11:52:05;;;;;;;3.53;2.20;;;18.40;1.00;;;;;;4981435;28;20618;-58
2023/10/03 11:54:33;;;;;;;2.57;2.23;;;18.10;1.00;;;;;;4979200;28;20277;-59
2023/10/03 11:57:03;;;;;;;2.47;2.07;;;17.70;1.00;;;;;;4981136;28;20580;-59
2023/10/03 11:59:31;;;;;;;5.00;2.50;;;17.30;1.00;;;;;;4981862;28;20231;-60
2023/10/03 12:02:00;;;;;;;2.87;2.23;;;17.10;1.00;;;;;;4977243;28;20223;-59
2023/10/03 12:04:29;;;;;;;2.70;2.50;;;16.90;1.00;;;;;;4980563;28;20673;-59
2023/10/03 12:06:58;;;;;;;5.40;2.33;;;16.90;1.00;;;;;;4979269;28;20247;-59
2023/10/03 12:09:26;;;;;;;2.60;2.40;;;16.80;1.00;;;;;;4994718;28;20244;-59
2023/10/03 12:11:55;;;;;;;5.40;2.17;;;16.70;1.00;;;;;;4998897;28;20230;-59
2023/10/03 12:14:25;;;;;;;4.60;2.07;;;16.60;1.00;;;;;;4981314;28;20222;-59
2023/10/03 12:16:54;;;;;;;2.57;2.00;;;16.60;1.00;;;;;;4995356;28;20237;-60
2023/10/03 12:19:22;;;;;;;4.57;2.40;;;16.80;1.00;;;;;;5002641;28;20653;-58
2023/10/03 12:21:51;;;;;;;2.40;2.20;;;17.10;1.00;;;;;;5000405;28;20197;-60
2023/10/03 12:24:20;;;;;;;6.47;2.53;;;17.40;1.00;;;;;;5003359;28;20277;-59
2023/10/03 12:26:48;;;;;;;3.92;3.00;;;17.60;1.00;;;;;;4992357;28;20440;-60
2023/10/03 12:29:17;;;;;;;2.70;2.50;;;17.80;1.00;;;;;;5000897;28;20639;-60
2023/10/03 12:31:48;;;;;;;5.07;2.60;;;18.00;1.00;;;;;;5002098;28;20230;-59
2023/10/03 12:34:17;;;;;;;4.47;3.20;;;18.20;1.00;;;;;;5001361;28;20202;-59
2023/10/03 12:36:45;;;;;;;4.68;3.00;;;18.40;1.00;;;;;;4998351;28;20442;-59
2023/10/03 12:39:18;;;;;;;2.70;2.50;;;18.40;1.00;;;;;;5013991;28;20241;-60
2023/10/03 12:41:47;;;;;;;4.00;2.90;;;18.50;1.00;;;;;;4998995;28;20595;-59
2023/10/03 12:44:16;;;;;;;9.10;3.00;;;18.60;1.00;;;;;;4998898;28;20658;-60
2023/10/03 12:46:46;;;;;;;4.93;3.10;;;18.70;1.00;;;;;;4997930;28;20817;-59
2023/10/03 12:49:15;;;;;;;4.33;2.73;;;18.60;1.00;;;;;;5000573;28;20190;-58
2023/10/03 12:51:44;;;;;;;3.63;2.87;;;18.40;99.90;;;;;;4997559;28;20190;-59
2023/10/03 12:54:13;;;;;;;5.93;2.80;;;18.00;99.90;;;;;;5003009;28;20624;-59
2023/10/03 12:56:42;;;;;;;4.70;2.73;;;17.90;1.00;;;;;;4996971;28;20653;-59
2023/10/03 12:59:11;;;;;;;5.07;2.93;;;17.90;1.00;;;;;;4995077;28;20233;-59
2023/10/03 13:01:39;;;;;;;5.70;3.17;;;18.10;1.00;;;;;;4992273;28;20669;-59
2023/10/03 13:04:09;;;;;;;4.77;3.13;;;18.30;99.90;;;;;;4995338;28;20249;-59
2023/10/03 13:06:39;;;;;;;6.53;2.87;;;18.60;99.90;;;;;;4996277;28;20221;-58